Airfield :
LOGIN :

Register | Disclaimer

   EN    FR    IT 

 










Legend :    VFR   Marginal VFR   IFR   Intensive IFR   Very Intensive IFR
Visi :
Ceiling :
>= 8 km
>= 3000ft
5 to 8 km
1000 to 3000 ft
1500m to 5 km
500 to 1000 ft
800 to 1500m
200 to 500 ft
< 800m
< 200 ft
Symbols :   Thunderstorms  Fog  Heavy snow  Heavy precipitations  Wind > 20 kt
SIGMETs :     Misc.  Thunderstorms  Icing  Turbulence  Mountain Waves  Volcanic Ashes







- Airport Elevation : 52 ft
- IATA code : RNN


EKRN - Bornholm Ronne

CURRENT METAR :
  • 191020Z 26015KT 2200 BR FEW004 BKN017 BKN080 05/04 Q1009

EXPIRED METARs :
  • 190950Z 26013KT 2500 BR FEW006 BKN020 BKN080 05/04 Q1009
  • 190920Z 28013KT 2500 -RA BR SCT006 BKN020 05/04 Q1009
  • 190850Z 26014KT 3500 -RA BR BKN006 BKN020 05/04 Q1008
  • 190843Z 26014KT 3500 -RA BR BKN006 BKN020 05/04 Q1008
  • 190820Z 25018KT 5000 -RA SCT011 BKN020 BKN040 05/03 Q1008
  • 190750Z 24008KT 210V270 7000 SCT025 BKN040 04/03 Q1008

TAF AMD TAF EKRN
Valid from the 19 at 09:00 until the 19 at 18:00 UTC


190940Z 1909/1918 22008KT 2500 -RA BR SCT006 BKN020
BECMG 1909/1911 9999 NSW BKN008
BECMG 1911/1914 25018KT BKN020
TEMPO 1914/1918 25020G30KT -SHRA BKN010 SCT020TCU
No reported NOTAMs for that airfield.



MET'MAP, your aeronautical weather chart ! - Copyright ORBIFLY December 2007 - Disclaimer

ORBIFLY MET'MAP TEAM :

Programming & Development : Alexandra Zaïnal
Concept & Development : Baudouin d'Aumeries
Co-Development & Prog : Marc-Olivier Méhu
Technical & hardware support : Manuel Goepfert

Contact : metmap@orbifly.com




SOURCES & CREDITS :

   NOAA